Flight Briefing for CPX117

Departure Arrival
Daniel K Inouye International Airport (PHNL)
Click to view FAA NOTAMS
Los Angeles International Airport (KLAX)
Click to view FAA NOTAMS
Departure Time Arrival Time
N/A N/A
Aircraft Distance
MD-11SF 2267nm
Departure METAR Arrival METAR
PHNL 180453Z 01008KT 10SM FEW020 FEW038 SCT080 21/17 A2995 RMK AO2 SLP141 VCSH NE SHRA DSNT NW T02110167 KLAX 180453Z 29019G25KT 10SM SCT100 11/02 A2999 RMK AO2 PK WND 28034/0422 SLP155 T01110017
Suggested Route
MKK4 CLUTS R465 CIVIT R585 AUDIA SNAXX RYDRR2


View recent IFR Routes data
Notes



Charts and Procedures

Charts for PHNL
No chart available
Charts for KLAX
No chart available

Ventusky Weather